Time;durP1;ratioP1;P1;durP2;ratioP2;P2;SDS_P1;SDS_P2;PMS_P1;PMS_P2;Temp;Humidity;BMP_temperature;BMP_pressure;BME280_temperature;BME280_humidity;BME280_pressure;Samples;Min_cycle;Max_cycle;Signal;HPM_P1;HPM_P2
2022/08/07 00:01:18;;;;;;;0.10;0.10;;;13.10;99.90;;;;;;5066934;28;20197;-90
2022/08/07 00:03:43;;;;;;;0.10;0.10;;;13.10;99.90;;;;;;5067479;28;20540;-91
2022/08/07 00:06:09;;;;;;;0.10;0.10;;;13.20;99.90;;;;;;5064139;28;20448;-89
2022/08/07 00:08:35;;;;;;;0.10;0.10;;;13.10;99.90;;;;;;5060361;28;20189;-90
2022/08/07 00:11:03;;;;;;;0.13;0.13;;;13.10;99.90;;;;;;5065302;28;20234;-90
2022/08/07 00:13:28;;;;;;;0.10;0.10;;;13.00;99.90;;;;;;5068434;28;20459;-90
2022/08/07 00:15:54;;;;;;;0.10;0.10;;;12.90;99.90;;;;;;5059507;28;20447;-89
2022/08/07 00:18:23;;;;;;;0.20;0.20;;;12.80;99.90;;;;;;5068485;28;20185;-89
2022/08/07 00:20:50;;;;;;;0.10;0.10;;;12.70;99.90;;;;;;5062279;28;20437;-90
2022/08/07 00:23:16;;;;;;;0.10;0.10;;;12.70;99.90;;;;;;5073745;28;20454;-90
2022/08/07 00:25:41;;;;;;;0.20;0.20;;;12.60;99.90;;;;;;5078977;28;20497;-90
2022/08/07 00:28:07;;;;;;;0.10;0.10;;;12.70;99.90;;;;;;5062875;28;20440;-90
2022/08/07 00:30:32;;;;;;;0.10;0.10;;;12.70;99.90;;;;;;5037806;28;20213;-91
2022/08/07 00:32:59;;;;;;;0.10;0.10;;;12.70;99.90;;;;;;5063953;28;20185;-89
2022/08/07 00:35:26;;;;;;;0.20;0.20;;;12.70;99.90;;;;;;5053217;28;20190;-91
2022/08/07 00:37:52;;;;;;;0.20;0.20;;;12.50;99.90;;;;;;5060281;28;20440;-90
2022/08/07 00:40:17;;;;;;;0.20;0.20;;;12.50;99.90;;;;;;5045002;28;20459;-90
2022/08/07 00:42:44;;;;;;;0.20;0.20;;;12.40;99.90;;;;;;5052699;28;20665;-90
2022/08/07 00:45:10;;;;;;;0.20;0.20;;;12.40;99.90;;;;;;5073281;28;20208;-90
2022/08/07 00:47:36;;;;;;;0.20;0.20;;;12.40;99.90;;;;;;5069506;28;20436;-90
2022/08/07 00:50:03;;;;;;;0.20;0.20;;;12.20;99.90;;;;;;5066536;28;20463;-90
2022/08/07 00:52:28;;;;;;;0.20;0.20;;;12.20;99.90;;;;;;5068447;28;20186;-89
2022/08/07 00:54:54;;;;;;;0.20;0.20;;;12.30;99.90;;;;;;5073196;28;20494;-90
2022/08/07 00:57:24;;;;;;;0.20;0.20;;;12.20;99.90;;;;;;5068855;28;20189;-90
2022/08/07 00:59:50;;;;;;;0.20;0.20;;;12.10;99.90;;;;;;5060699;28;20190;-90
2022/08/07 01:02:16;;;;;;;0.20;0.20;;;12.10;99.90;;;;;;5076465;28;20574;-90
2022/08/07 01:04:41;;;;;;;0.20;0.20;;;12.10;99.90;;;;;;5077112;28;20527;-90
2022/08/07 01:07:07;;;;;;;0.20;0.20;;;12.10;99.90;;;;;;5053551;28;20207;-90
2022/08/07 01:09:33;;;;;;;0.20;0.20;;;12.00;99.90;;;;;;5060524;28;20235;-91
2022/08/07 01:11:59;;;;;;;0.20;0.20;;;11.90;99.90;;;;;;5066808;28;20639;-90
2022/08/07 01:14:25;;;;;;;0.20;0.20;;;11.90;99.90;;;;;;5071971;28;20189;-90
2022/08/07 01:16:51;;;;;;;0.20;0.20;;;11.90;99.90;;;;;;5060380;28;20429;-90
2022/08/07 01:19:18;;;;;;;0.20;0.20;;;11.90;99.90;;;;;;5074264;28;20526;-90
2022/08/07 01:21:46;;;;;;;0.20;0.20;;;12.10;99.90;;;;;;5068494;28;20448;-91
2022/08/07 01:24:13;;;;;;;0.17;0.17;;;12.10;99.90;;;;;;5071195;28;20436;-90
2022/08/07 01:26:39;;;;;;;0.20;0.20;;;12.20;99.90;;;;;;5054165;28;20436;-91
2022/08/07 01:29:04;;;;;;;0.20;0.20;;;12.20;99.90;;;;;;5068696;28;20797;-90
2022/08/07 01:31:30;;;;;;;0.10;0.10;;;12.10;99.90;;;;;;5065062;28;20737;-90
2022/08/07 01:33:57;;;;;;;0.10;0.10;;;12.10;99.90;;;;;;5059007;28;20179;-89
2022/08/07 01:36:24;;;;;;;0.20;0.20;;;12.10;99.90;;;;;;5067829;28;20186;-91
2022/08/07 01:38:50;;;;;;;0.10;0.10;;;12.10;99.90;;;;;;5051538;28;20427;-90
2022/08/07 01:41:18;;;;;;;0.20;0.20;;;12.30;99.90;;;;;;5067963;28;20510;-90
2022/08/07 01:43:43;;;;;;;0.10;0.10;;;12.50;99.90;;;;;;5056152;28;20472;-91
2022/08/07 01:46:09;;;;;;;0.20;0.20;;;12.50;99.90;;;;;;5064741;28;20994;-91
2022/08/07 01:48:36;;;;;;;0.20;0.20;;;12.30;99.90;;;;;;5073848;28;20170;-90
2022/08/07 01:51:05;;;;;;;0.20;0.20;;;12.20;99.90;;;;;;5068380;28;20302;-91
2022/08/07 01:53:34;;;;;;;0.20;0.20;;;12.30;99.90;;;;;;5068384;28;20513;-90
2022/08/07 01:56:02;;;;;;;0.20;0.20;;;12.30;99.90;;;;;;5067466;28;20460;-90
2022/08/07 01:58:33;;;;;;;0.20;0.20;;;12.20;99.90;;;;;;5072510;28;20517;-90
2022/08/07 02:01:03;;;;;;;0.20;0.20;;;12.20;99.90;;;;;;5069697;28;20439;-90
2022/08/07 02:03:32;;;;;;;0.10;0.10;;;12.20;99.90;;;;;;5072549;28;20436;-90
2022/08/07 02:06:05;;;;;;;0.17;0.17;;;12.30;99.90;;;;;;5062734;28;20532;-91
2022/08/07 02:08:36;;;;;;;0.20;0.20;;;12.20;99.90;;;;;;5069995;28;20436;-90
2022/08/07 02:11:04;;;;;;;0.20;0.20;;;12.40;99.90;;;;;;5050901;28;20490;-90
2022/08/07 02:13:31;;;;;;;0.20;0.20;;;12.50;99.90;;;;;;5061753;28;20449;-90
2022/08/07 02:15:59;;;;;;;0.20;0.20;;;12.30;99.90;;;;;;5064931;28;20536;-91
2022/08/07 02:18:28;;;;;;;0.20;0.20;;;12.40;99.90;;;;;;5064648;28;20447;-90
2022/08/07 02:20:55;;;;;;;0.20;0.20;;;12.30;99.90;;;;;;5063618;28;20449;-90
2022/08/07 02:23:22;;;;;;;0.20;0.20;;;12.30;99.90;;;;;;5086428;28;20471;-91
2022/08/07 02:25:48;;;;;;;0.20;0.20;;;12.10;99.90;;;;;;5079978;28;20448;-90
2022/08/07 02:28:14;;;;;;;0.20;0.20;;;12.30;99.90;;;;;;5055892;28;20425;-92
2022/08/07 02:30:42;;;;;;;0.20;0.20;;;12.20;99.90;;;;;;5070887;28;20520;-90
2022/08/07 02:33:08;;;;;;;0.20;0.20;;;12.10;99.90;;;;;;5072058;28;20451;-89
2022/08/07 02:35:35;;;;;;;0.20;0.20;;;12.20;99.90;;;;;;5047141;28;20459;-91
2022/08/07 02:38:03;;;;;;;0.20;0.20;;;12.20;99.90;;;;;;5050531;28;20428;-90
2022/08/07 02:40:31;;;;;;;0.20;0.20;;;12.10;99.90;;;;;;5051574;28;20959;-90
2022/08/07 02:42:57;;;;;;;0.20;0.20;;;11.80;99.90;;;;;;5053483;28;20474;-91
2022/08/07 02:45:26;;;;;;;0.20;0.20;;;11.80;99.90;;;;;;5070034;28;20465;-90
2022/08/07 02:47:52;;;;;;;0.20;0.20;;;11.90;99.90;;;;;;5084633;28;20452;-91
2022/08/07 02:50:18;;;;;;;0.20;0.20;;;12.10;99.90;;;;;;5064669;28;20464;-90
2022/08/07 02:52:51;;;;;;;0.20;0.20;;;11.90;99.90;;;;;;5060120;28;20186;-90
2022/08/07 02:55:20;;;;;;;0.20;0.20;;;11.80;99.90;;;;;;5068812;28;20967;-90
2022/08/07 02:57:46;;;;;;;0.20;0.20;;;11.60;99.90;;;;;;5071196;28;20447;-88
2022/08/07 03:00:13;;;;;;;0.20;0.20;;;11.50;99.90;;;;;;5058631;28;20440;-90
2022/08/07 03:02:43;;;;;;;0.20;0.20;;;11.80;99.90;;;;;;5075312;28;20488;-89
2022/08/07 03:05:10;;;;;;;0.20;0.20;;;11.90;99.90;;;;;;5069652;28;20464;-91
2022/08/07 03:07:37;;;;;;;0.10;0.10;;;11.90;99.90;;;;;;5069270;28;20467;-92
2022/08/07 03:10:03;;;;;;;0.20;0.20;;;11.90;99.90;;;;;;5071222;28;20487;-90
2022/08/07 03:12:30;;;;;;;0.20;0.20;;;11.90;99.90;;;;;;5070155;28;20448;-89
2022/08/07 03:14:56;;;;;;;0.20;0.20;;;12.00;99.90;;;;;;5069510;28;20449;-89
2022/08/07 03:17:22;;;;;;;0.20;0.20;;;12.00;99.90;;;;;;5067838;28;20962;-89
2022/08/07 03:19:49;;;;;;;0.20;0.20;;;12.00;99.90;;;;;;5077579;28;20692;-90
2022/08/07 03:22:16;;;;;;;0.20;0.20;;;12.00;99.90;;;;;;5068915;28;20436;-89
2022/08/07 03:24:41;;;;;;;0.20;0.20;;;11.80;99.90;;;;;;5057288;28;20784;-86
2022/08/07 03:27:08;;;;;;;0.20;0.20;;;11.80;99.90;;;;;;5049594;28;20530;-90
2022/08/07 03:29:43;;;;;;;0.20;0.20;;;11.80;99.90;;;;;;5038783;28;20237;-89
2022/08/07 03:32:11;;;;;;;0.20;0.20;;;11.80;99.90;;;;;;5060562;28;21010;-89
2022/08/07 03:34:39;;;;;;;0.20;0.20;;;11.80;99.90;;;;;;5063565;28;20478;-89
2022/08/07 03:37:08;;;;;;;0.20;0.20;;;11.70;99.90;;;;;;5065446;28;20540;-90
2022/08/07 03:39:35;;;;;;;0.20;0.20;;;11.60;99.90;;;;;;5050106;28;20432;-87
2022/08/07 03:42:04;;;;;;;0.20;0.20;;;11.60;99.90;;;;;;5067787;28;20483;-87
2022/08/07 03:44:32;;;;;;;0.20;0.20;;;11.50;99.90;;;;;;5057490;28;20435;-90
2022/08/07 03:46:59;;;;;;;0.20;0.20;;;11.50;99.90;;;;;;5061271;28;20455;-90
2022/08/07 03:49:25;;;;;;;0.20;0.20;;;11.50;99.90;;;;;;5069074;28;20519;-90
2022/08/07 03:51:51;;;;;;;0.20;0.20;;;11.40;99.90;;;;;;5065697;28;20522;-89
2022/08/07 03:54:17;;;;;;;0.20;0.20;;;11.40;99.90;;;;;;5068998;28;20447;-90
2022/08/07 03:56:44;;;;;;;0.20;0.20;;;11.40;99.90;;;;;;5057007;28;20526;-90
2022/08/07 03:59:12;;;;;;;0.20;0.20;;;11.40;99.90;;;;;;5066700;28;20208;-90
2022/08/07 04:01:42;;;;;;;0.20;0.20;;;11.40;99.90;;;;;;5056161;28;20904;-90
2022/08/07 04:04:08;;;;;;;0.20;0.20;;;11.40;99.90;;;;;;5061335;28;20448;-89
2022/08/07 04:06:36;;;;;;;0.20;0.20;;;11.40;99.90;;;;;;5067268;28;20438;-91
2022/08/07 04:09:01;;;;;;;0.20;0.20;;;11.50;99.90;;;;;;5050633;28;20833;-89
2022/08/07 04:11:27;;;;;;;0.20;0.20;;;11.50;99.90;;;;;;5064008;28;20506;-90
2022/08/07 04:13:54;;;;;;;0.20;0.20;;;11.60;99.90;;;;;;5041380;28;20193;-90
2022/08/07 04:16:20;;;;;;;0.20;0.20;;;11.50;99.90;;;;;;5058604;28;20201;-89
2022/08/07 04:18:46;;;;;;;0.20;0.20;;;11.50;99.90;;;;;;5072842;28;20515;-89
2022/08/07 04:21:12;;;;;;;0.20;0.20;;;11.50;99.90;;;;;;5064941;28;20451;-89
2022/08/07 04:23:38;;;;;;;0.20;0.20;;;11.50;99.90;;;;;;5045407;28;20182;-88
2022/08/07 04:26:06;;;;;;;0.20;0.20;;;11.40;99.90;;;;;;5070975;28;20467;-88
2022/08/07 04:28:32;;;;;;;0.20;0.20;;;11.50;99.90;;;;;;5073156;28;20447;-89
2022/08/07 04:30:58;;;;;;;0.20;0.20;;;11.50;99.90;;;;;;5073553;28;20471;-90
2022/08/07 04:33:24;;;;;;;0.20;0.20;;;11.50;99.90;;;;;;5056762;28;20174;-88
2022/08/07 04:35:50;;;;;;;0.20;0.20;;;11.50;99.90;;;;;;5072428;28;20444;-91
2022/08/07 04:38:17;;;;;;;0.20;0.20;;;11.60;99.90;;;;;;5074315;28;20439;-88
2022/08/07 04:40:44;;;;;;;0.20;0.20;;;11.50;99.90;;;;;;5074668;28;20213;-91
2022/08/07 04:43:10;;;;;;;0.20;0.20;;;11.50;99.90;;;;;;5056866;28;20869;-89
2022/08/07 04:45:54;;;;;;;0.20;0.20;;;11.50;99.90;;;;;;5045772;28;20524;-90
2022/08/07 04:49:08;;;;;;;0.20;0.20;;;11.50;99.90;;;;;;5044047;28;20228;-87
2022/08/07 04:51:54;;;;;;;0.20;0.20;;;11.60;99.90;;;;;;4983541;28;20496;-90
2022/08/07 04:54:53;;;;;;;0.20;0.20;;;11.60;99.90;;;;;;5070352;28;20444;-86
2022/08/07 04:57:51;;;;;;;0.20;0.20;;;11.70;99.90;;;;;;5065408;28;20501;-90
2022/08/07 05:00:23;;;;;;;0.20;0.20;;;11.80;99.90;;;;;;5051970;28;20806;-90
2022/08/07 05:03:15;;;;;;;0.20;0.20;;;11.90;99.90;;;;;;5072670;28;20443;-90
2022/08/07 05:06:17;;;;;;;0.20;0.20;;;12.00;99.90;;;;;;5070136;28;21069;-90
2022/08/07 05:08:54;;;;;;;0.23;0.23;;;12.10;99.90;;;;;;5048390;28;21097;-89
2022/08/07 05:11:38;;;;;;;0.20;0.20;;;12.30;99.90;;;;;;5069521;28;20522;-91
2022/08/07 05:14:14;;;;;;;0.20;0.20;;;12.40;99.90;;;;;;5073302;28;20679;-91
2022/08/07 05:16:46;;;;;;;0.20;0.20;;;12.50;99.90;;;;;;5049668;28;20456;-87
2022/08/07 05:19:15;;;;;;;0.20;0.20;;;12.50;99.90;;;;;;5071979;28;20452;-88
2022/08/07 05:21:52;;;;;;;0.20;0.20;;;12.60;99.90;;;;;;5073201;28;20454;-88
2022/08/07 05:24:20;;;;;;;0.20;0.20;;;12.70;99.90;;;;;;5050663;28;20452;-87
2022/08/07 05:26:48;;;;;;;0.20;0.20;;;12.80;99.90;;;;;;5067508;28;20443;-86
2022/08/07 05:29:16;;;;;;;0.20;0.20;;;12.80;99.90;;;;;;5073425;28;21003;-87
2022/08/07 05:31:43;;;;;;;0.20;0.20;;;12.80;99.90;;;;;;5071464;28;20524;-86
2022/08/07 05:34:11;;;;;;;0.20;0.20;;;12.80;99.90;;;;;;5071612;28;20517;-87
2022/08/07 05:36:41;;;;;;;0.17;0.17;;;12.80;99.90;;;;;;5052144;28;20499;-87
2022/08/07 05:39:07;;;;;;;0.10;0.10;;;12.90;99.90;;;;;;5044626;28;20987;-91
2022/08/07 05:41:33;;;;;;;0.20;0.20;;;13.10;99.90;;;;;;5072286;28;20530;-89
2022/08/07 05:43:59;;;;;;;0.20;0.20;;;13.20;99.90;;;;;;5055270;28;20188;-89
2022/08/07 05:46:25;;;;;;;0.10;0.10;;;13.50;99.90;;;;;;5070727;28;20194;-89
2022/08/07 05:48:51;;;;;;;0.20;0.20;;;13.70;99.90;;;;;;5068154;28;21014;-88
2022/08/07 05:51:18;;;;;;;0.10;0.10;;;13.80;99.90;;;;;;5071994;28;20282;-89
2022/08/07 05:53:44;;;;;;;0.10;0.10;;;14.10;99.90;;;;;;5066496;28;20928;-90
2022/08/07 05:56:11;;;;;;;0.10;0.10;;;14.20;99.90;;;;;;5043976;28;20856;-90
2022/08/07 05:58:37;;;;;;;0.20;0.20;;;14.20;99.90;;;;;;5055412;28;20502;-92
2022/08/07 06:01:05;;;;;;;0.10;0.10;;;14.20;99.90;;;;;;5071440;28;20456;-90
2022/08/07 06:03:32;;;;;;;0.10;0.10;;;14.30;99.90;;;;;;5073375;28;20439;-90
2022/08/07 06:05:58;;;;;;;0.10;0.10;;;14.20;99.90;;;;;;5071386;28;20456;-90
2022/08/07 06:08:24;;;;;;;0.10;0.10;;;14.20;99.90;;;;;;5073575;28;20433;-91
2022/08/07 06:10:50;;;;;;;0.10;0.10;;;14.20;99.90;;;;;;5050892;28;20549;-92
2022/08/07 06:13:16;;;;;;;0.10;0.10;;;14.20;99.90;;;;;;5074069;28;20515;-90
2022/08/07 06:15:43;;;;;;;0.10;0.10;;;14.30;99.90;;;;;;5042947;28;20581;-91
2022/08/07 06:18:11;;;;;;;0.10;0.10;;;14.40;99.90;;;;;;5072499;28;20436;-90
2022/08/07 06:20:37;;;;;;;0.10;0.10;;;14.40;99.90;;;;;;5059818;28;20428;-91
2022/08/07 06:23:05;;;;;;;0.10;0.10;;;14.30;99.90;;;;;;5047828;28;20446;-90
2022/08/07 06:25:31;;;;;;;0.10;0.10;;;14.40;99.90;;;;;;5068946;28;20537;-89
2022/08/07 06:28:04;;;;;;;0.10;0.10;;;14.50;99.90;;;;;;5068314;28;20478;-88
2022/08/07 06:30:30;;;;;;;0.10;0.10;;;14.50;99.90;;;;;;5069132;28;20515;-89
2022/08/07 06:32:56;;;;;;;0.10;0.10;;;14.60;99.90;;;;;;5064332;28;20475;-89
2022/08/07 06:35:21;;;;;;;0.10;0.10;;;14.70;99.90;;;;;;5043912;28;20197;-89
2022/08/07 06:37:47;;;;;;;0.10;0.10;;;14.80;99.90;;;;;;5066062;28;20193;-89
2022/08/07 06:40:12;;;;;;;0.10;0.10;;;14.90;99.90;;;;;;5065596;28;20634;-90
2022/08/07 06:42:41;;;;;;;0.10;0.10;;;14.90;99.90;;;;;;5072436;28;20676;-93
2022/08/07 06:45:11;;;;;;;0.10;0.10;;;14.90;99.90;;;;;;5072976;28;20209;-93
2022/08/07 06:47:37;;;;;;;0.10;0.10;;;15.00;99.90;;;;;;5061457;28;20493;-89
2022/08/07 06:50:03;;;;;;;0.10;0.10;;;15.20;99.90;;;;;;5067162;28;20512;-89
2022/08/07 06:52:33;;;;;;;0.10;0.10;;;15.30;99.90;;;;;;5063897;28;20192;-93
2022/08/07 06:55:00;;;;;;;0.10;0.10;;;15.30;99.90;;;;;;5042774;28;20429;-93
2022/08/07 06:57:28;;;;;;;0.10;0.10;;;15.30;99.90;;;;;;5073921;28;20817;-93
2022/08/07 06:59:54;;;;;;;0.10;0.10;;;15.20;99.90;;;;;;5074509;28;20423;-94
2022/08/07 07:02:21;;;;;;;0.10;0.10;;;15.20;99.90;;;;;;5073850;28;20509;-94
2022/08/07 07:04:47;;;;;;;0.10;0.10;;;15.20;99.90;;;;;;5077344;28;20492;-94
2022/08/07 07:07:13;;;;;;;0.10;0.10;;;15.30;99.90;;;;;;5083009;28;20440;-94
2022/08/07 07:09:49;;;;;;;0.10;0.10;;;15.40;99.90;;;;;;5086001;28;20229;-89
2022/08/07 07:12:47;;;;;;;0.10;0.10;;;15.60;99.90;;;;;;5060024;28;20478;-91
2022/08/07 07:15:35;;;;;;;0.10;0.10;;;15.90;99.90;;;;;;5053977;28;20484;-92
2022/08/07 07:18:15;;;;;;;0.10;0.10;;;15.90;99.90;;;;;;5065671;28;20435;-91
2022/08/07 07:20:48;;;;;;;0.10;0.10;;;16.00;99.90;;;;;;5089985;28;20443;-94
2022/08/07 07:23:14;;;;;;;0.10;0.10;;;16.10;99.90;;;;;;5076847;28;21020;-92
2022/08/07 07:25:42;;;;;;;0.10;0.10;;;16.40;99.90;;;;;;5079299;28;20443;-94
2022/08/07 07:28:19;;;;;;;0.10;0.10;;;16.70;99.90;;;;;;5069257;28;20606;-95
2022/08/07 07:30:54;;;;;;;0.10;0.10;;;17.00;99.90;;;;;;5068112;28;20463;-91
2022/08/07 07:33:22;;;;;;;0.10;0.10;;;17.00;99.90;;;;;;5090444;28;20466;-91
2022/08/07 07:35:50;;;;;;;0.10;0.10;;;16.90;99.90;;;;;;5074618;28;20420;-93
2022/08/07 07:38:19;;;;;;;0.10;0.10;;;16.80;99.90;;;;;;5075046;28;20421;-91
2022/08/07 07:40:46;;;;;;;0.10;0.10;;;16.60;99.90;;;;;;5076003;28;20438;-93
2022/08/07 07:43:14;;;;;;;0.10;0.10;;;16.50;99.90;;;;;;5048638;28;20494;-93
2022/08/07 07:45:42;;;;;;;0.10;0.10;;;16.40;99.90;;;;;;5071116;28;20432;-94
2022/08/07 07:48:10;;;;;;;0.10;0.10;;;16.50;99.90;;;;;;5072790;28;20783;-91
2022/08/07 07:50:36;;;;;;;0.10;0.10;;;16.60;99.90;;;;;;5073492;28;20539;-92
2022/08/07 07:53:03;;;;;;;0.10;0.10;;;16.70;99.90;;;;;;5051080;28;20816;-92
2022/08/07 07:55:30;;;;;;;0.10;0.10;;;16.70;99.90;;;;;;5067069;28;20476;-92
2022/08/07 07:57:57;;;;;;;0.10;0.10;;;16.70;99.90;;;;;;5076089;28;20544;-94
2022/08/07 08:00:26;;;;;;;0.10;0.10;;;16.70;99.90;;;;;;5046238;28;20463;-88
2022/08/07 08:02:54;;;;;;;0.10;0.10;;;16.80;99.90;;;;;;5053584;28;20519;-90
2022/08/07 08:05:21;;;;;;;0.10;0.10;;;16.80;99.90;;;;;;5042527;28;20456;-89
2022/08/07 08:07:47;;;;;;;0.10;0.10;;;16.80;99.90;;;;;;5051148;28;20539;-92
2022/08/07 08:10:14;;;;;;;0.10;0.10;;;16.90;99.90;;;;;;5069998;28;20521;-91
2022/08/07 08:12:42;;;;;;;0.10;0.10;;;17.30;99.90;;;;;;5055051;28;20456;-90
2022/08/07 08:15:08;;;;;;;0.10;0.10;;;17.90;99.90;;;;;;5070545;28;20428;-93
2022/08/07 08:17:34;;;;;;;0.10;0.10;;;17.80;99.90;;;;;;5072263;28;20439;-95
2022/08/07 08:20:05;;;;;;;0.10;0.10;;;17.90;99.90;;;;;;5068891;28;21220;-94
2022/08/07 08:28:08;;;;;;;0.10;0.10;;;17.60;99.90;;;;;;5069342;28;20447;-90
2022/08/07 08:30:34;;;;;;;0.10;0.10;;;17.40;99.90;;;;;;5067818;28;20571;-94
2022/08/07 08:33:04;;;;;;;0.10;0.10;;;17.30;99.90;;;;;;5068261;28;20447;-92
2022/08/07 08:35:31;;;;;;;0.10;0.10;;;17.30;99.90;;;;;;5058943;28;20935;-95
2022/08/07 08:38:00;;;;;;;0.10;0.10;;;17.50;99.90;;;;;;5071276;28;20928;-93
2022/08/07 08:40:39;;;;;;;0.10;0.10;;;17.70;99.90;;;;;;5044208;28;20441;-94
2022/08/07 08:43:22;;;;;;;0.10;0.10;;;17.80;99.90;;;;;;5067927;28;20458;-94
2022/08/07 08:46:08;;;;;;;0.10;0.10;;;18.00;99.90;;;;;;5065748;28;20440;-91
2022/08/07 08:49:11;;;;;;;0.10;0.10;;;18.00;99.90;;;;;;5061389;28;20554;-92
2022/08/07 08:52:01;;;;;;;0.10;0.10;;;18.00;99.90;;;;;;5063790;28;20480;-85
2022/08/07 08:54:36;;;;;;;0.10;0.10;;;18.00;99.90;;;;;;5012015;28;20455;-94
2022/08/07 08:57:07;;;;;;;0.10;0.10;;;17.90;99.90;;;;;;5064999;28;20435;-90
2022/08/07 08:59:52;;;;;;;0.10;0.10;;;17.90;99.90;;;;;;5067988;28;20878;-85
2022/08/07 09:02:48;;;;;;;0.10;0.10;;;17.80;99.90;;;;;;5067283;28;20963;-84
2022/08/07 09:05:39;;;;;;;0.10;0.10;;;17.80;99.90;;;;;;5064202;28;20456;-89
2022/08/07 09:08:24;;;;;;;0.10;0.10;;;17.80;99.90;;;;;;5064442;28;20441;-88
2022/08/07 09:11:10;;;;;;;0.10;0.10;;;17.70;99.90;;;;;;5066386;28;20488;-87
2022/08/07 09:13:59;;;;;;;0.10;0.10;;;17.50;99.90;;;;;;5048926;28;20442;-87
2022/08/07 09:16:35;;;;;;;0.10;0.10;;;17.60;99.90;;;;;;5069996;28;20446;-86
2022/08/07 09:19:39;;;;;;;0.10;0.10;;;17.70;99.90;;;;;;5041549;28;20431;-86
2022/08/07 09:22:09;;;;;;;0.10;0.10;;;17.70;99.90;;;;;;5064808;28;20455;-87
2022/08/07 09:24:47;;;;;;;0.10;0.10;;;17.70;99.90;;;;;;5062324;28;20501;-86
2022/08/07 09:27:18;;;;;;;0.10;0.10;;;17.90;99.90;;;;;;5067172;28;20934;-88
2022/08/07 09:29:47;;;;;;;0.10;0.10;;;18.10;99.90;;;;;;5045056;28;20460;-89
2022/08/07 09:32:42;;;;;;;0.10;0.10;;;18.40;99.90;;;;;;5061274;28;20455;-87
2022/08/07 09:35:21;;;;;;;0.10;0.10;;;18.80;99.90;;;;;;5053712;28;20908;-87
2022/08/07 09:37:59;;;;;;;0.10;0.10;;;19.20;99.90;;;;;;5072320;28;20931;-86
2022/08/07 09:40:41;;;;;;;0.10;0.10;;;19.60;99.90;;;;;;5079000;28;20441;-84
2022/08/07 09:43:40;;;;;;;0.10;0.10;;;19.50;99.90;;;;;;5078339;28;20444;-86
2022/08/07 09:46:34;;;;;;;0.10;0.10;;;19.40;99.90;;;;;;5052777;28;20444;-85
2022/08/07 09:49:35;;;;;;;0.10;0.10;;;19.40;99.90;;;;;;5069161;28;21196;-85
2022/08/07 09:52:15;;;;;;;0.10;0.10;;;19.40;99.90;;;;;;5043136;28;20549;-86
2022/08/07 09:54:57;;;;;;;0.10;0.10;;;19.60;99.90;;;;;;5039041;28;20449;-88
2022/08/07 09:58:12;;;;;;;0.10;0.10;;;19.60;99.90;;;;;;5071139;28;20940;-86
2022/08/07 10:00:59;;;;;;;0.10;0.10;;;19.50;99.90;;;;;;5039407;28;20440;-89
2022/08/07 10:03:55;;;;;;;0.10;0.10;;;19.50;99.90;;;;;;5058836;28;20522;-84
2022/08/07 10:07:01;;;;;;;0.10;0.10;;;19.80;99.90;;;;;;5056678;28;20454;-85
2022/08/07 10:10:01;;;;;;;0.10;0.10;;;20.20;99.90;;;;;;5062111;28;20477;-87
2022/08/07 10:12:38;;;;;;;0.10;0.00;;;20.00;99.90;;;;;;5061322;28;20456;-86
2022/08/07 10:15:34;;;;;;;0.10;0.10;;;19.70;99.90;;;;;;5072111;28;20442;-86
2022/08/07 10:18:35;;;;;;;0.10;0.10;;;20.50;99.90;;;;;;5066577;28;20562;-86
2022/08/07 10:21:40;;;;;;;0.10;0.10;;;20.50;99.90;;;;;;5050199;28;22068;-86
2022/08/07 10:24:31;;;;;;;0.10;0.10;;;20.40;99.90;;;;;;5064440;28;20547;-86
2022/08/07 10:27:16;;;;;;;0.10;0.10;;;20.20;99.90;;;;;;5063395;28;20475;-86
2022/08/07 10:30:05;;;;;;;0.10;0.10;;;20.30;99.90;;;;;;5066814;28;21137;-86
2022/08/07 10:32:45;;;;;;;0.10;0.00;;;20.40;99.90;;;;;;5077915;28;20446;-85
2022/08/07 10:35:39;;;;;;;0.10;0.00;;;20.30;99.90;;;;;;5069251;28;20439;-87
2022/08/07 10:38:35;;;;;;;0.10;0.00;;;20.90;99.90;;;;;;5044040;28;20476;-87
2022/08/07 10:41:40;;;;;;;0.10;0.00;;;21.00;99.90;;;;;;5065081;28;20436;-89
2022/08/07 10:44:26;;;;;;;0.10;0.10;;;20.70;99.90;;;;;;5067492;28;20456;-88
2022/08/07 10:47:05;;;;;;;0.10;0.10;;;20.00;99.90;;;;;;5067244;28;20444;-87
2022/08/07 10:49:36;;;;;;;0.10;0.10;;;19.30;99.90;;;;;;5047701;28;20455;-86
2022/08/07 10:52:11;;;;;;;0.10;0.10;;;18.90;99.90;;;;;;5062781;28;20472;-90
2022/08/07 10:55:07;;;;;;;0.10;0.10;;;18.50;99.90;;;;;;5066758;28;20947;-90
2022/08/07 10:57:50;;;;;;;0.10;0.10;;;18.20;99.90;;;;;;5062672;28;20955;-87
2022/08/07 11:00:17;;;;;;;0.10;0.10;;;18.00;99.90;;;;;;5039998;28;20432;-86
2022/08/07 11:03:09;;;;;;;0.10;0.10;;;17.90;99.90;;;;;;5068518;28;20515;-87
2022/08/07 11:06:04;;;;;;;0.10;0.10;;;17.80;99.90;;;;;;5067480;28;20459;-87
2022/08/07 11:08:44;;;;;;;0.10;0.10;;;17.60;99.90;;;;;;5067737;28;21020;-87
2022/08/07 11:11:24;;;;;;;0.10;0.10;;;17.50;99.90;;;;;;5061692;28;20487;-86
2022/08/07 11:14:06;;;;;;;0.10;0.10;;;17.70;99.90;;;;;;5068164;28;20424;-87
2022/08/07 11:16:57;;;;;;;0.10;0.10;;;17.70;99.90;;;;;;5066867;28;20462;-85
2022/08/07 11:19:34;;;;;;;0.10;0.10;;;17.70;99.90;;;;;;5052278;28;20432;-85
2022/08/07 11:22:18;;;;;;;0.10;0.10;;;17.70;99.90;;;;;;5033333;28;20428;-86
2022/08/07 11:24:50;;;;;;;0.10;0.10;;;17.80;99.90;;;;;;5059471;28;20428;-86
2022/08/07 11:27:44;;;;;;;0.10;0.10;;;17.80;99.90;;;;;;5064597;28;20463;-86
2022/08/07 11:30:17;;;;;;;0.10;0.10;;;17.80;99.90;;;;;;5048787;28;20955;-86
2022/08/07 11:33:10;;;;;;;0.10;0.10;;;17.80;99.90;;;;;;5064139;28;20436;-85
2022/08/07 11:35:51;;;;;;;0.10;0.10;;;17.90;99.90;;;;;;5046627;28;21247;-87
2022/08/07 11:38:29;;;;;;;0.10;0.10;;;18.00;99.90;;;;;;5058899;28;20428;-86
2022/08/07 11:41:13;;;;;;;0.10;0.10;;;18.20;99.90;;;;;;5066588;28;20454;-86
2022/08/07 11:43:59;;;;;;;0.10;0.10;;;18.70;99.90;;;;;;5057327;28;20447;-87
2022/08/07 11:46:43;;;;;;;0.10;0.10;;;19.20;99.90;;;;;;5076813;28;20419;-85
2022/08/07 11:49:31;;;;;;;0.10;0.00;;;20.30;99.90;;;;;;5060319;28;20444;-87
2022/08/07 11:52:41;;;;;;;0.10;0.00;;;22.60;99.90;;;;;;5067164;28;20559;-87
2022/08/07 11:55:32;;;;;;;0.10;0.00;;;24.00;99.90;;;;;;4975185;28;20456;-88
2022/08/07 11:58:09;;;;;;;0.10;0.00;;;23.30;99.90;;;;;;4986786;28;20519;-90
2022/08/07 12:00:35;;;;;;;0.10;0.00;;;22.50;99.90;;;;;;5034411;28;20563;-89
2022/08/07 12:03:14;;;;;;;0.10;0.00;;;21.20;99.90;;;;;;5059216;28;20653;-88
2022/08/07 12:06:01;;;;;;;0.10;0.00;;;20.70;99.90;;;;;;5066900;28;20243;-88
2022/08/07 12:08:36;;;;;;;0.10;0.10;;;20.60;99.90;;;;;;5045159;28;20454;-86
2022/08/07 12:11:18;;;;;;;0.10;0.00;;;20.40;99.90;;;;;;5059038;28;20502;-88
2022/08/07 12:13:51;;;;;;;0.10;0.00;;;20.40;99.90;;;;;;5049096;28;20432;-85
2022/08/07 12:16:21;;;;;;;0.10;0.00;;;20.60;99.90;;;;;;5063976;28;20520;-85
2022/08/07 12:19:03;;;;;;;0.10;0.00;;;21.40;99.90;;;;;;5056669;28;20859;-89
2022/08/07 12:21:51;;;;;;;0.10;0.00;;;22.20;99.90;;;;;;5060934;28;20534;-89
2022/08/07 12:24:20;;;;;;;0.10;0.00;;;22.10;99.90;;;;;;5049468;28;20451;-89
2022/08/07 12:27:03;;;;;;;0.10;0.00;;;21.70;99.90;;;;;;5061632;28;21038;-87
2022/08/07 12:29:45;;;;;;;0.10;0.10;;;21.40;99.90;;;;;;5065754;28;20929;-89
2022/08/07 12:32:22;;;;;;;0.10;0.00;;;20.90;99.90;;;;;;5038586;28;20484;-89
2022/08/07 12:34:50;;;;;;;0.10;0.00;;;20.60;99.90;;;;;;5058702;28;21264;-87
2022/08/07 12:37:17;;;;;;;0.10;0.00;;;20.60;99.90;;;;;;5039503;28;20448;-85
2022/08/07 12:39:46;;;;;;;0.10;0.10;;;20.60;99.90;;;;;;5039060;28;20503;-87
2022/08/07 12:42:16;;;;;;;0.10;0.00;;;21.00;99.90;;;;;;5048146;28;20471;-85
2022/08/07 12:44:46;;;;;;;0.10;0.00;;;21.40;99.90;;;;;;5059957;28;20483;-90
2022/08/07 12:47:31;;;;;;;0.10;0.00;;;22.50;99.90;;;;;;5061462;28;20467;-87
2022/08/07 12:50:30;;;;;;;0.10;0.00;;;23.00;99.90;;;;;;5052451;28;20440;-87
2022/08/07 12:53:18;;;;;;;0.10;0.00;;;23.30;99.90;;;;;;5052579;28;20481;-88
2022/08/07 12:55:54;;;;;;;0.10;0.00;;;23.50;99.90;;;;;;5068383;28;20504;-89
2022/08/07 12:58:21;;;;;;;0.10;0.00;;;24.40;99.90;;;;;;5069475;28;20496;-88
2022/08/07 13:00:51;;;;;;;0.10;0.10;;;24.20;99.90;;;;;;5055268;28;20566;-88
2022/08/07 13:03:22;;;;;;;0.10;0.00;;;24.80;99.90;;;;;;5056053;28;20457;-88
2022/08/07 13:05:58;;;;;;;0.10;0.00;;;23.80;99.90;;;;;;5070439;28;20534;-86
2022/08/07 13:08:58;;;;;;;0.10;0.00;;;23.80;99.90;;;;;;5069251;28;20451;-86
2022/08/07 13:11:38;;;;;;;0.10;0.00;;;24.10;99.90;;;;;;5067150;28;20487;-88
2022/08/07 13:14:14;;;;;;;0.10;0.00;;;24.50;99.90;;;;;;5071469;28;20431;-89
2022/08/07 13:17:10;;;;;;;0.10;0.00;;;24.00;99.90;;;;;;5052786;28;20522;-87
2022/08/07 13:20:10;;;;;;;0.10;0.00;;;23.50;99.90;;;;;;5070276;28;20436;-86
2022/08/07 13:23:04;;;;;;;0.10;0.00;;;24.20;99.90;;;;;;5069853;28;20455;-85
2022/08/07 13:25:39;;;;;;;0.10;0.00;;;24.30;99.90;;;;;;5041605;28;20437;-85
2022/08/07 13:28:18;;;;;;;0.10;0.00;;;24.20;99.90;;;;;;5035809;28;20448;-88